createdAt,value
2023-04-26T00:00:11.842Z,9.19
2023-04-26T00:05:14.256Z,9.28
2023-04-26T00:10:16.037Z,9.23
2023-04-26T00:15:17.604Z,9.05
2023-04-26T00:20:19.368Z,9.08
2023-04-26T00:25:21.019Z,9.15
2023-04-26T00:30:22.763Z,9.03
2023-04-26T00:35:24.572Z,8.94
2023-04-26T00:40:26.184Z,8.98
2023-04-26T00:45:27.872Z,8.90
2023-04-26T00:50:30.260Z,8.72
2023-04-26T00:55:31.927Z,8.71
2023-04-26T01:00:34.097Z,8.71
2023-04-26T01:05:36.742Z,8.70
2023-04-26T01:10:39.266Z,8.59
2023-04-26T01:15:47.738Z,8.59
2023-04-26T01:20:49.450Z,8.55
2023-04-26T01:25:51.280Z,8.54
2023-04-26T01:30:53.026Z,8.30
2023-04-26T01:35:54.701Z,8.45
2023-04-26T01:40:57.455Z,8.41
2023-04-26T01:45:59.212Z,8.47
2023-04-26T01:51:04.605Z,8.40
2023-04-26T01:56:08.258Z,8.31
2023-04-26T02:01:10.131Z,8.42
2023-04-26T02:06:12.113Z,8.40
2023-04-26T02:11:13.792Z,8.32
2023-04-26T02:16:16.880Z,8.41
2023-04-26T02:21:21.501Z,8.28
2023-04-26T02:26:23.128Z,8.35
2023-04-26T02:31:24.857Z,8.20
2023-04-26T02:36:27.294Z,8.20
2023-04-26T02:41:32.832Z,8.28
2023-04-26T02:46:34.531Z,8.25
2023-04-26T02:51:36.353Z,8.27
2023-04-26T02:56:38.211Z,8.16
2023-04-26T03:01:39.908Z,8.19
2023-04-26T03:06:41.635Z,8.10
2023-04-26T03:11:43.177Z,7.96
2023-04-26T03:16:44.962Z,8.18
2023-04-26T03:21:46.710Z,8.07
2023-04-26T03:26:48.384Z,7.92
2023-04-26T03:31:50.410Z,7.89
2023-04-26T03:36:52.085Z,7.81
2023-04-26T03:41:54.112Z,7.76
2023-04-26T03:46:56.094Z,7.64
2023-04-26T03:51:57.936Z,7.72
2023-04-26T03:56:59.506Z,7.45
2023-04-26T04:02:01.232Z,7.65
2023-04-26T04:07:03.126Z,7.72
2023-04-26T04:12:04.890Z,7.69
2023-04-26T04:17:08.529Z,7.62
2023-04-26T04:22:10.346Z,7.67
2023-04-26T04:27:14.984Z,7.70
2023-04-26T04:32:17.559Z,7.46
2023-04-26T04:37:19.756Z,7.87
2023-04-26T04:42:22.323Z,7.74
2023-04-26T04:47:25.754Z,8.08
2023-04-26T04:52:28.034Z,8.04
2023-04-26T04:57:30.217Z,8.05
2023-04-26T05:02:33.270Z,8.06
2023-04-26T05:07:35.069Z,8.16
2023-04-26T05:12:37.118Z,8.47
2023-04-26T05:17:39.008Z,8.49
2023-04-26T05:22:55.887Z,8.87
2023-04-26T05:27:57.531Z,9.11
2023-04-26T05:33:10.267Z,8.56
2023-04-26T05:38:21.943Z,8.88
2023-04-26T05:43:23.517Z,8.89
2023-04-26T05:48:25.305Z,9.05
2023-04-26T05:53:26.989Z,8.88
2023-04-26T05:58:28.796Z,9.04
2023-04-26T06:03:31.012Z,8.94
2023-04-26T06:08:33.485Z,9.11
2023-04-26T06:13:35.313Z,9.22
2023-04-26T06:18:37.311Z,9.58
2023-04-26T06:23:38.975Z,9.53
2023-04-26T06:28:42.212Z,9.60
2023-04-26T06:33:44.386Z,9.69
2023-04-26T06:38:47.678Z,9.99
2023-04-26T06:43:49.429Z,9.94
2023-04-26T06:48:56.177Z,10.41
2023-04-26T06:54:00.937Z,10.26
2023-04-26T06:59:04.881Z,10.21
2023-04-26T07:04:13.779Z,9.89
2023-04-26T07:09:15.440Z,9.90
2023-04-26T07:14:18.951Z,10.19
2023-04-26T07:19:20.572Z,10.37
2023-04-26T07:24:22.110Z,10.71
2023-04-26T07:29:23.814Z,10.17
2023-04-26T07:34:26.671Z,10.34
2023-04-26T07:39:28.292Z,10.44
2023-04-26T07:44:29.962Z,10.81
2023-04-26T07:49:31.648Z,10.74
2023-04-26T07:54:33.288Z,10.65
2023-04-26T07:59:34.978Z,10.53
2023-04-26T08:04:36.787Z,10.87
2023-04-26T08:09:38.462Z,10.68
2023-04-26T08:14:40.359Z,11.25
2023-04-26T08:19:42.068Z,10.92
2023-04-26T08:24:48.132Z,10.63
2023-04-26T08:29:49.752Z,10.92
2023-04-26T08:34:51.321Z,10.51
2023-04-26T08:39:52.880Z,10.57
2023-04-26T08:44:54.750Z,10.08
2023-04-26T08:50:02.732Z,10.84
2023-04-26T08:55:05.447Z,10.67
2023-04-26T09:00:13.465Z,10.81
2023-04-26T09:05:15.358Z,10.52
2023-04-26T09:10:21.632Z,10.56
2023-04-26T09:15:24.600Z,10.95
2023-04-26T09:20:28.663Z,11.11
2023-04-26T09:25:31.351Z,11.13
2023-04-26T09:30:39.796Z,10.78
2023-04-26T09:35:42.855Z,10.79
2023-04-26T09:40:49.706Z,11.01
2023-04-26T09:45:56.768Z,10.86
2023-04-26T09:51:04.308Z,10.91
2023-04-26T09:56:19.695Z,11.11
2023-04-26T10:01:21.351Z,11.32
2023-04-26T10:06:23.491Z,10.92
2023-04-26T10:11:26.707Z,11.24
2023-04-26T10:16:28.840Z,10.96
2023-04-26T10:21:32.609Z,10.96
2023-04-26T10:26:48.783Z,11.03
2023-04-26T10:32:02.400Z,11.20
2023-04-26T10:37:08.598Z,11.17
2023-04-26T10:42:24.690Z,11.60
2023-04-26T10:47:29.006Z,11.53
2023-04-26T10:52:30.869Z,11.57
2023-04-26T10:57:49.314Z,11.58
2023-04-26T11:03:05.082Z,11.47
2023-04-26T11:08:20.798Z,11.65
2023-04-26T11:13:22.434Z,11.00
2023-04-26T11:18:24.142Z,11.56
2023-04-26T11:23:28.160Z,11.69
2023-04-26T11:28:34.531Z,11.53
2023-04-26T11:33:36.315Z,11.93
2023-04-26T11:38:38.079Z,11.55
2023-04-26T11:43:40.400Z,12.01
2023-04-26T11:48:42.372Z,12.03
2023-04-26T11:53:44.512Z,11.47
2023-04-26T11:58:51.668Z,11.25
2023-04-26T12:03:55.798Z,11.66
2023-04-26T12:08:57.520Z,11.87
2023-04-26T12:13:59.751Z,11.93
2023-04-26T12:19:05.657Z,11.71
2023-04-26T12:24:07.584Z,11.46
2023-04-26T12:29:09.425Z,12.20
2023-04-26T12:34:11.160Z,12.07
2023-04-26T12:39:14.430Z,12.09
2023-04-26T12:44:16.257Z,11.96
2023-04-26T12:49:17.838Z,12.19
2023-04-26T12:54:19.497Z,12.16
2023-04-26T12:59:21.080Z,12.25
2023-04-26T13:04:22.819Z,12.17
2023-04-26T13:09:24.545Z,11.59
2023-04-26T13:14:26.209Z,11.54
2023-04-26T13:19:27.758Z,11.66
2023-04-26T13:24:29.354Z,11.59
2023-04-26T13:29:33.430Z,11.80
2023-04-26T13:34:35.776Z,11.67
2023-04-26T13:39:37.358Z,11.75
2023-04-26T13:44:39.544Z,11.84
2023-04-26T13:49:41.817Z,11.79
2023-04-26T13:54:43.520Z,12.00
2023-04-26T13:59:45.625Z,11.52
2023-04-26T14:04:47.525Z,11.91
2023-04-26T14:09:50.293Z,11.67
2023-04-26T14:14:51.910Z,11.51
2023-04-26T14:19:54.817Z,11.68
2023-04-26T14:24:56.697Z,11.87
2023-04-26T14:29:58.259Z,11.76
2023-04-26T14:34:59.836Z,11.75
2023-04-26T14:40:01.414Z,11.72
2023-04-26T14:45:03.443Z,11.65
2023-04-26T14:50:07.713Z,11.68
2023-04-26T14:55:09.475Z,11.57
2023-04-26T15:00:15.048Z,11.59
2023-04-26T15:05:16.898Z,11.71
2023-04-26T15:10:18.623Z,11.81
2023-04-26T15:15:20.402Z,11.89
2023-04-26T15:20:22.333Z,11.85
2023-04-26T15:25:23.906Z,11.61
2023-04-26T15:30:25.711Z,11.67
2023-04-26T15:35:27.337Z,11.24
2023-04-26T15:40:28.909Z,11.54
2023-04-26T15:45:30.497Z,11.50
2023-04-26T15:50:32.111Z,11.57
2023-04-26T15:55:33.878Z,11.36
2023-04-26T16:00:36.421Z,11.41
2023-04-26T16:05:37.968Z,11.34
2023-04-26T16:10:39.524Z,11.56
2023-04-26T16:15:41.289Z,11.37
2023-04-26T16:20:42.927Z,11.38
2023-04-26T16:25:44.649Z,11.30
2023-04-26T16:30:46.419Z,11.27
2023-04-26T16:35:57.788Z,11.12
2023-04-26T16:41:01.639Z,11.20
2023-04-26T16:46:07.563Z,10.97
2023-04-26T16:51:09.415Z,10.98
2023-04-26T16:56:11.065Z,11.08
2023-04-26T17:01:12.856Z,11.07
2023-04-26T17:06:14.438Z,10.99
2023-04-26T17:11:16.577Z,10.93
2023-04-26T17:16:18.221Z,10.95
2023-04-26T17:21:19.878Z,10.81
2023-04-26T17:26:21.911Z,10.90
2023-04-26T17:31:23.498Z,10.87
2023-04-26T17:36:25.102Z,10.78
2023-04-26T17:41:26.748Z,10.77
2023-04-26T17:46:28.463Z,10.69
2023-04-26T17:51:30.138Z,10.60
2023-04-26T17:56:31.751Z,10.59
2023-04-26T18:01:36.393Z,10.73
2023-04-26T18:06:38.159Z,10.63
2023-04-26T18:11:40.038Z,10.69
2023-04-26T18:16:42.213Z,10.66
2023-04-26T18:21:43.833Z,10.65
2023-04-26T18:26:45.477Z,10.66
2023-04-26T18:31:47.312Z,10.58
2023-04-26T18:36:48.941Z,10.52
2023-04-26T18:41:52.091Z,10.53
2023-04-26T18:46:55.825Z,10.51
2023-04-26T18:51:57.558Z,10.56
2023-04-26T18:57:01.096Z,10.37
2023-04-26T19:02:04.938Z,10.46
2023-04-26T19:07:06.824Z,10.50
2023-04-26T19:12:08.950Z,10.41
2023-04-26T19:17:11.318Z,10.38
2023-04-26T19:22:13.152Z,10.29
2023-04-26T19:27:14.777Z,10.25
2023-04-26T19:32:18.880Z,10.14
2023-04-26T19:37:20.677Z,10.12
2023-04-26T19:42:22.258Z,9.96
2023-04-26T19:47:23.897Z,9.94
2023-04-26T19:52:25.613Z,9.95
2023-04-26T19:57:27.165Z,9.85
2023-04-26T20:02:28.891Z,9.77
2023-04-26T20:07:30.644Z,9.42
2023-04-26T20:12:33.208Z,9.58
2023-04-26T20:17:34.780Z,9.64
2023-04-26T20:22:36.805Z,9.56
2023-04-26T20:27:38.595Z,9.50
2023-04-26T20:32:40.564Z,9.42
2023-04-26T20:37:42.222Z,9.39
2023-04-26T20:42:43.882Z,9.35
2023-04-26T20:47:45.764Z,9.31
2023-04-26T20:52:47.432Z,9.19
2023-04-26T20:57:49.340Z,9.09
2023-04-26T21:02:51.011Z,8.98
2023-04-26T21:07:52.698Z,9.04
2023-04-26T21:12:54.347Z,8.91
2023-04-26T21:17:56.044Z,8.78
2023-04-26T21:22:57.719Z,8.72
2023-04-26T21:27:59.307Z,8.59
2023-04-26T21:33:00.966Z,8.53
2023-04-26T21:38:02.624Z,8.33
2023-04-26T21:43:05.294Z,8.28
2023-04-26T21:48:07.856Z,8.22
2023-04-26T21:53:09.494Z,8.24
2023-04-26T21:58:11.223Z,8.15
2023-04-26T22:03:13.555Z,8.12
2023-04-26T22:08:15.455Z,8.04
2023-04-26T22:13:17.077Z,7.79
2023-04-26T22:18:18.901Z,7.92
2023-04-26T22:23:20.842Z,7.90
2023-04-26T22:28:22.512Z,7.78
2023-04-26T22:33:24.101Z,7.75
2023-04-26T22:38:25.800Z,7.73
2023-04-26T22:43:27.376Z,7.47
2023-04-26T22:48:29.032Z,7.51
2023-04-26T22:53:30.664Z,7.48
2023-04-26T22:58:32.312Z,7.46
2023-04-26T23:03:37.085Z,7.29
2023-04-26T23:08:38.743Z,7.36
2023-04-26T23:13:40.289Z,7.20
2023-04-26T23:18:42.481Z,7.18
2023-04-26T23:23:44.100Z,7.16
2023-04-26T23:28:45.778Z,7.10
2023-04-26T23:33:47.332Z,7.01
2023-04-26T23:38:48.879Z,6.97
2023-04-26T23:43:50.437Z,6.80
2023-04-26T23:48:52.020Z,6.87
2023-04-26T23:53:53.662Z,6.72
2023-04-26T23:58:55.203Z,6.78
